createdAt,value
2018-02-22T00:00:51.576Z,80.62
2018-02-22T00:03:19.316Z,80.44
2018-02-22T00:05:47.104Z,80.45
2018-02-22T00:08:14.760Z,80.50
2018-02-22T00:10:42.487Z,80.50
2018-02-22T00:13:10.229Z,80.39
2018-02-22T00:15:37.952Z,80.38
2018-02-22T00:18:05.720Z,80.38
2018-02-22T00:20:33.476Z,80.18
2018-02-22T00:23:01.245Z,80.03
2018-02-22T00:25:29.016Z,79.90
2018-02-22T00:27:56.737Z,80.04
2018-02-22T00:30:24.475Z,79.96
2018-02-22T00:32:52.202Z,79.96
2018-02-22T00:35:19.968Z,80.06
2018-02-22T00:37:47.736Z,80.22
2018-02-22T00:40:15.605Z,80.24
2018-02-22T00:42:43.372Z,80.45
2018-02-22T00:45:11.113Z,80.49
2018-02-22T00:47:38.900Z,80.47
2018-02-22T00:50:06.665Z,80.41
2018-02-22T00:52:34.428Z,80.15
2018-02-22T00:55:02.092Z,80.12
2018-02-22T00:57:29.752Z,79.99
2018-02-22T00:59:57.525Z,80.07
2018-02-22T01:02:25.189Z,79.95
2018-02-22T01:04:52.940Z,79.98
2018-02-22T01:07:20.659Z,80.11
2018-02-22T01:09:48.381Z,80.10
2018-02-22T01:12:16.129Z,80.16
2018-02-22T01:14:43.852Z,80.26
2018-02-22T01:17:11.587Z,80.42
2018-02-22T01:19:39.228Z,80.43
2018-02-22T01:22:06.893Z,80.54
2018-02-22T01:24:34.556Z,80.56
2018-02-22T01:27:02.428Z,80.62
2018-02-22T01:29:30.147Z,80.57
2018-02-22T01:31:57.957Z,80.35
2018-02-22T01:34:25.720Z,80.36
2018-02-22T01:36:53.492Z,80.46
2018-02-22T01:39:21.213Z,80.44
2018-02-22T01:41:48.964Z,80.50
2018-02-22T01:44:16.690Z,80.58
2018-02-22T01:46:44.452Z,80.59
2018-02-22T01:49:12.196Z,80.43
2018-02-22T01:51:39.981Z,80.59
2018-02-22T01:54:07.726Z,80.57
2018-02-22T01:56:35.457Z,80.68
2018-02-22T01:59:03.205Z,80.53
2018-02-22T02:01:30.933Z,80.56
2018-02-22T02:03:58.709Z,80.61
2018-02-22T02:06:26.469Z,80.73
2018-02-22T02:08:54.222Z,80.71
2018-02-22T02:11:21.873Z,80.75
2018-02-22T02:13:49.618Z,80.47
2018-02-22T02:16:17.426Z,80.34
2018-02-22T02:18:45.188Z,80.26
2018-02-22T02:21:12.956Z,80.10
2018-02-22T02:23:40.735Z,80.11
2018-02-22T02:26:08.459Z,80.24
2018-02-22T02:28:36.201Z,80.19
2018-02-22T02:31:03.952Z,80.40
2018-02-22T02:33:31.685Z,80.56
2018-02-22T02:35:59.542Z,80.64
2018-02-22T02:38:27.315Z,80.82
2018-02-22T02:40:55.073Z,80.76
2018-02-22T02:43:22.802Z,80.75
2018-02-22T02:45:50.608Z,80.67
2018-02-22T02:48:18.342Z,80.73
2018-02-22T02:50:46.097Z,80.96
2018-02-22T02:53:13.863Z,80.90
2018-02-22T02:55:41.664Z,81.14
2018-02-22T02:58:09.428Z,81.36
2018-02-22T03:00:37.203Z,81.44
2018-02-22T03:03:04.969Z,81.39
2018-02-22T03:05:32.721Z,81.13
2018-02-22T03:08:00.484Z,80.89
2018-02-22T03:10:28.208Z,80.75
2018-02-22T03:12:56.020Z,80.86
2018-02-22T03:15:23.739Z,80.77
2018-02-22T03:17:51.552Z,80.82
2018-02-22T03:20:19.270Z,80.84
2018-02-22T03:22:47.007Z,80.41
2018-02-22T03:25:14.718Z,80.68
2018-02-22T03:27:42.510Z,80.59
2018-02-22T03:30:10.221Z,80.50
2018-02-22T03:32:37.956Z,80.28
2018-02-22T03:35:05.696Z,80.37
2018-02-22T03:37:33.468Z,80.43
2018-02-22T03:40:01.231Z,80.48
2018-02-22T03:42:28.999Z,80.72
2018-02-22T03:44:56.749Z,80.83
2018-02-22T03:47:24.467Z,80.77
2018-02-22T03:49:52.214Z,80.71
2018-02-22T03:52:19.951Z,80.58
2018-02-22T03:54:47.690Z,80.53
2018-02-22T03:57:15.411Z,80.44
2018-02-22T03:59:43.252Z,80.39
2018-02-22T04:02:11.024Z,80.27
2018-02-22T04:04:38.777Z,80.24
2018-02-22T04:07:06.495Z,80.41
2018-02-22T04:09:34.307Z,80.47
2018-02-22T04:12:02.071Z,80.54
2018-02-22T04:14:29.848Z,80.52
2018-02-22T04:16:57.583Z,80.53
2018-02-22T04:19:25.299Z,80.55
2018-02-22T04:21:53.034Z,80.52
2018-02-22T04:24:20.671Z,80.35
2018-02-22T04:26:48.462Z,80.31
2018-02-22T04:29:16.223Z,80.27
2018-02-22T04:31:43.968Z,80.14
2018-02-22T04:34:11.751Z,80.13
2018-02-22T04:36:39.523Z,80.05
2018-02-22T04:39:08.003Z,79.99
2018-02-22T04:41:35.754Z,79.95
2018-02-22T04:44:03.540Z,79.99
2018-02-22T04:46:31.404Z,79.93
2018-02-22T04:48:59.167Z,79.88
2018-02-22T04:51:26.906Z,79.85
2018-02-22T04:53:54.774Z,79.98
2018-02-22T04:56:22.563Z,79.95
2018-02-22T04:58:50.327Z,79.89
2018-02-22T05:01:18.040Z,79.93
2018-02-22T05:03:45.860Z,79.90
2018-02-22T05:06:13.599Z,79.83
2018-02-22T05:08:41.344Z,79.84
2018-02-22T05:11:09.169Z,80.03
2018-02-22T05:13:36.958Z,79.99
2018-02-22T05:16:04.697Z,80.03
2018-02-22T05:18:32.524Z,80.15
2018-02-22T05:21:00.224Z,80.12
2018-02-22T05:23:27.907Z,80.11
2018-02-22T05:25:55.723Z,80.05
2018-02-22T05:28:23.407Z,79.97
2018-02-22T05:30:51.152Z,79.95
2018-02-22T05:33:18.843Z,79.89
2018-02-22T05:35:46.580Z,79.96
2018-02-22T05:38:14.349Z,79.97
2018-02-22T05:40:42.109Z,80.07
2018-02-22T05:43:09.787Z,80.08
2018-02-22T05:45:37.541Z,80.06
2018-02-22T05:48:05.309Z,79.98
2018-02-22T05:50:33.035Z,79.90
2018-02-22T05:53:00.720Z,79.68
2018-02-22T05:55:28.491Z,79.58
2018-02-22T05:57:56.196Z,79.42
2018-02-22T06:00:23.933Z,79.43
2018-02-22T06:02:51.658Z,79.41
2018-02-22T06:05:19.347Z,79.52
2018-02-22T06:07:47.131Z,79.66
2018-02-22T06:10:14.819Z,79.52
2018-02-22T06:12:42.524Z,79.43
2018-02-22T06:15:10.216Z,79.27
2018-02-22T06:17:37.967Z,79.11
2018-02-22T06:20:05.736Z,79.08
2018-02-22T06:22:33.815Z,78.97
2018-02-22T06:25:01.571Z,78.96
2018-02-22T06:27:29.304Z,78.95
2018-02-22T06:29:56.988Z,78.82
2018-02-22T06:32:25.673Z,78.73
2018-02-22T06:34:53.451Z,78.79
2018-02-22T06:37:21.145Z,78.92
2018-02-22T06:39:48.851Z,79.02
2018-02-22T06:42:16.649Z,79.16
2018-02-22T06:44:44.355Z,78.99
2018-02-22T06:47:12.064Z,79.00
2018-02-22T06:49:39.780Z,79.05
2018-02-22T06:52:07.511Z,79.20
2018-02-22T06:54:35.267Z,79.17
2018-02-22T06:57:02.961Z,79.37
2018-02-22T06:59:30.681Z,79.47
2018-02-22T07:01:58.368Z,79.52
2018-02-22T07:04:26.080Z,79.60
2018-02-22T07:06:54.136Z,79.49
2018-02-22T07:09:21.778Z,79.54
2018-02-22T07:11:49.464Z,79.60
2018-02-22T07:14:17.196Z,79.55
2018-02-22T07:16:44.848Z,79.49
2018-02-22T07:19:12.508Z,79.40
2018-02-22T07:21:40.215Z,79.21
2018-02-22T07:24:07.966Z,79.18
2018-02-22T07:26:35.607Z,79.08
2018-02-22T07:29:03.224Z,79.00
2018-02-22T07:31:30.933Z,78.95
2018-02-22T07:33:58.616Z,79.05
2018-02-22T07:36:26.323Z,79.01
2018-02-22T07:38:54.120Z,78.99
2018-02-22T07:41:21.784Z,78.67
2018-02-22T07:43:49.476Z,78.77
2018-02-22T07:46:17.108Z,78.63
2018-02-22T07:48:44.722Z,78.48
2018-02-22T07:51:12.441Z,78.54
2018-02-22T07:53:40.104Z,78.42
2018-02-22T07:56:07.731Z,78.45
2018-02-22T07:58:35.419Z,78.33
2018-02-22T08:01:03.048Z,78.37
2018-02-22T08:03:30.747Z,78.18
2018-02-22T08:05:58.412Z,77.95
2018-02-22T08:08:26.076Z,77.76
2018-02-22T08:10:53.736Z,77.38
2018-02-22T08:13:21.404Z,77.51
2018-02-22T08:15:49.007Z,77.39
2018-02-22T08:18:16.645Z,77.22
2018-02-22T08:20:44.283Z,77.04
2018-02-22T08:23:11.915Z,77.06
2018-02-22T08:25:39.612Z,76.62
2018-02-22T08:28:07.240Z,76.50
2018-02-22T08:30:34.854Z,76.62
2018-02-22T08:33:02.598Z,76.39
2018-02-22T08:35:30.268Z,76.40
2018-02-22T08:37:57.910Z,76.14
2018-02-22T08:40:25.519Z,76.02
2018-02-22T08:42:53.147Z,76.04
2018-02-22T08:45:20.815Z,76.11
2018-02-22T08:47:48.440Z,76.13
2018-02-22T08:50:16.140Z,76.01
2018-02-22T08:52:43.777Z,75.86
2018-02-22T08:55:11.392Z,75.81
2018-02-22T08:57:39.024Z,75.81
2018-02-22T09:00:06.688Z,75.76
2018-02-22T09:02:34.405Z,75.82
2018-02-22T09:05:02.009Z,75.56
2018-02-22T09:07:29.617Z,75.18
2018-02-22T09:09:57.275Z,75.06
2018-02-22T09:12:24.879Z,74.93
2018-02-22T09:14:52.512Z,74.49
2018-02-22T09:17:20.209Z,74.65
2018-02-22T09:19:47.844Z,74.31
2018-02-22T09:22:15.453Z,74.00
2018-02-22T09:24:43.088Z,73.69
2018-02-22T09:27:10.687Z,73.49
2018-02-22T09:29:38.319Z,73.51
2018-02-22T09:32:06.097Z,73.66
2018-02-22T09:34:33.763Z,73.29
2018-02-22T09:37:01.424Z,73.03
2018-02-22T09:39:29.083Z,72.76
2018-02-22T09:41:56.758Z,72.35
2018-02-22T09:44:24.412Z,72.68
2018-02-22T09:46:52.048Z,72.72
2018-02-22T09:49:19.736Z,72.88
2018-02-22T09:51:47.363Z,73.08
2018-02-22T09:54:14.991Z,73.32
2018-02-22T09:56:42.724Z,73.18
2018-02-22T09:59:10.328Z,73.25
2018-02-22T10:01:37.956Z,73.01
2018-02-22T10:04:05.573Z,72.63
2018-02-22T10:06:33.208Z,72.71
2018-02-22T10:09:00.853Z,72.71
2018-02-22T10:11:28.496Z,72.48
2018-02-22T10:13:56.159Z,72.31
2018-02-22T10:16:23.828Z,71.75
2018-02-22T10:18:51.487Z,71.63
2018-02-22T10:21:19.120Z,71.83
2018-02-22T10:23:46.728Z,71.86
2018-02-22T10:26:14.371Z,72.01
2018-02-22T10:28:42.044Z,71.71
2018-02-22T10:31:09.695Z,71.82
2018-02-22T10:33:37.303Z,71.65
2018-02-22T10:36:04.926Z,71.73
2018-02-22T10:38:32.556Z,71.79
2018-02-22T10:41:00.181Z,71.41
2018-02-22T10:43:27.907Z,71.28
2018-02-22T10:45:55.581Z,71.06
2018-02-22T10:48:23.220Z,71.14
2018-02-22T10:50:50.869Z,71.06
2018-02-22T10:53:18.564Z,70.80
2018-02-22T10:55:46.171Z,70.59
2018-02-22T10:58:13.803Z,70.69
2018-02-22T11:00:47.080Z,70.65
2018-02-22T11:03:14.710Z,70.87
2018-02-22T11:05:42.315Z,70.94
2018-02-22T11:08:11.509Z,70.99
2018-02-22T11:10:39.273Z,70.80
2018-02-22T11:13:06.928Z,70.61
2018-02-22T11:15:34.595Z,70.97
2018-02-22T11:18:02.206Z,71.15
2018-02-22T11:20:29.920Z,71.15
2018-02-22T11:22:57.584Z,71.40
2018-02-22T11:25:25.244Z,71.50
2018-02-22T11:27:52.860Z,71.34
2018-02-22T11:30:20.510Z,71.40
2018-02-22T11:32:48.232Z,71.30
2018-02-22T11:35:15.865Z,71.57
2018-02-22T11:37:43.476Z,71.36
2018-02-22T11:40:11.115Z,71.41
2018-02-22T11:42:38.733Z,71.60
2018-02-22T11:45:06.446Z,71.76
2018-02-22T11:47:34.052Z,71.69
2018-02-22T11:50:01.777Z,71.98
2018-02-22T11:52:29.391Z,71.88
2018-02-22T11:54:57.101Z,71.69
2018-02-22T11:57:24.708Z,71.26
2018-02-22T11:59:52.340Z,71.28
2018-02-22T12:02:19.992Z,71.29
2018-02-22T12:04:47.648Z,70.83
2018-02-22T12:07:15.308Z,70.04
2018-02-22T12:09:42.912Z,69.98
2018-02-22T12:12:10.636Z,69.72
2018-02-22T12:14:38.296Z,69.20
2018-02-22T12:17:05.928Z,69.07
2018-02-22T12:19:33.535Z,68.88
2018-02-22T12:22:01.164Z,68.80
2018-02-22T12:24:28.784Z,68.71
2018-02-22T12:26:56.411Z,68.07
2018-02-22T12:29:24.075Z,67.92
2018-02-22T12:31:51.727Z,68.04
2018-02-22T12:34:19.328Z,68.48
2018-02-22T12:36:46.969Z,68.50
2018-02-22T12:39:14.576Z,68.18
2018-02-22T12:41:42.286Z,67.99
2018-02-22T12:44:09.939Z,68.03
2018-02-22T12:46:37.604Z,68.34
2018-02-22T12:49:05.273Z,68.49
2018-02-22T12:51:32.932Z,68.18
2018-02-22T12:54:00.559Z,68.12
2018-02-22T12:56:28.176Z,68.01
2018-02-22T12:58:55.924Z,67.81
2018-02-22T13:01:23.681Z,68.16
2018-02-22T13:03:51.316Z,67.88
2018-02-22T13:06:18.920Z,67.60
2018-02-22T13:08:46.575Z,66.72
2018-02-22T13:11:14.234Z,66.69
2018-02-22T13:13:41.864Z,65.89
2018-02-22T13:16:09.472Z,64.80
2018-02-22T13:18:37.129Z,64.09
2018-02-22T13:21:04.740Z,63.59
2018-02-22T13:23:32.443Z,63.25
2018-02-22T13:26:00.114Z,63.54
2018-02-22T13:28:27.768Z,63.83
2018-02-22T13:30:55.431Z,62.94
2018-02-22T13:33:34.991Z,62.83
2018-02-22T13:36:02.620Z,62.15
2018-02-22T13:38:41.972Z,61.94
2018-02-22T13:41:09.609Z,61.51
2018-02-22T13:43:37.267Z,61.75
2018-02-22T13:46:04.972Z,61.81
2018-02-22T13:48:44.507Z,62.36
2018-02-22T13:51:12.173Z,62.96
2018-02-22T13:53:39.790Z,63.08
2018-02-22T13:56:07.424Z,62.92
2018-02-22T13:58:35.155Z,62.96
2018-02-22T14:01:14.598Z,62.83
2018-02-22T14:03:42.217Z,63.23
2018-02-22T14:06:09.924Z,63.53
2018-02-22T14:08:43.528Z,63.80
2018-02-22T14:11:11.193Z,63.97
2018-02-22T14:13:38.809Z,64.13
2018-02-22T14:16:06.441Z,64.38
2018-02-22T14:18:34.076Z,64.72
2018-02-22T14:21:01.713Z,64.51
2018-02-22T14:23:29.395Z,64.48
2018-02-22T14:25:57.059Z,64.69
2018-02-22T14:28:24.719Z,64.88
2018-02-22T14:30:52.383Z,65.45
2018-02-22T14:33:19.992Z,65.43
2018-02-22T14:35:47.709Z,65.46
2018-02-22T14:38:15.381Z,65.37
2018-02-22T14:40:43.035Z,65.74
2018-02-22T14:43:10.696Z,65.88
2018-02-22T14:45:38.372Z,65.91
2018-02-22T14:48:06.024Z,66.02
2018-02-22T14:50:33.688Z,66.18
2018-02-22T14:53:01.325Z,66.24
2018-02-22T14:55:29.022Z,66.01
2018-02-22T14:57:56.679Z,66.16
2018-02-22T15:00:24.339Z,66.11
2018-02-22T15:02:52.008Z,66.19
2018-02-22T15:05:19.672Z,65.69
2018-02-22T15:07:47.334Z,65.75
2018-02-22T15:10:14.993Z,65.79
2018-02-22T15:12:42.629Z,65.30
2018-02-22T15:15:10.240Z,65.39
2018-02-22T15:17:37.976Z,65.23
2018-02-22T15:20:05.612Z,65.03
2018-02-22T15:22:33.235Z,64.91
2018-02-22T15:25:00.840Z,65.00
2018-02-22T15:27:28.479Z,65.28
2018-02-22T15:29:56.201Z,64.98
2018-02-22T15:32:23.960Z,64.61
2018-02-22T15:34:51.602Z,64.82
2018-02-22T15:37:19.900Z,64.80
2018-02-22T15:39:47.564Z,64.96
2018-02-22T15:42:15.219Z,65.19
2018-02-22T15:44:42.861Z,65.21
2018-02-22T15:47:10.486Z,65.24
2018-02-22T15:49:38.207Z,65.58
2018-02-22T15:52:05.821Z,65.65
2018-02-22T15:54:33.452Z,65.70
2018-02-22T15:57:01.056Z,65.90
2018-02-22T15:59:28.687Z,65.86
2018-02-22T16:01:56.320Z,65.83
2018-02-22T16:04:23.952Z,65.83
2018-02-22T16:06:51.648Z,65.99
2018-02-22T16:09:19.314Z,65.86
2018-02-22T16:11:46.973Z,65.94
2018-02-22T16:14:14.640Z,65.95
2018-02-22T16:16:42.258Z,66.03
2018-02-22T16:19:09.913Z,66.64
2018-02-22T16:21:37.519Z,66.28
2018-02-22T16:24:05.155Z,66.04
2018-02-22T16:26:32.844Z,66.28
2018-02-22T16:29:00.476Z,66.37
2018-02-22T16:31:28.115Z,66.69
2018-02-22T16:33:55.728Z,66.75
2018-02-22T16:36:23.363Z,66.99
2018-02-22T16:38:51.055Z,67.54
2018-02-22T16:41:18.719Z,67.23
2018-02-22T16:43:46.380Z,67.32
2018-02-22T16:46:14.048Z,67.96
2018-02-22T16:48:41.655Z,68.14
2018-02-22T16:51:09.284Z,68.66
2018-02-22T16:53:36.932Z,69.05
2018-02-22T16:56:04.600Z,69.95
2018-02-22T16:58:32.261Z,70.31
2018-02-22T17:00:59.924Z,70.98
2018-02-22T17:03:27.580Z,71.10
2018-02-22T17:05:55.243Z,71.49
2018-02-22T17:08:22.917Z,71.90
2018-02-22T17:10:50.556Z,72.27
2018-02-22T17:13:18.231Z,72.53
2018-02-22T17:15:45.882Z,72.99
2018-02-22T17:18:13.511Z,72.98
2018-02-22T17:20:41.124Z,73.73
2018-02-22T17:23:08.756Z,73.89
2018-02-22T17:25:35.806Z,73.77
2018-02-22T17:28:09.164Z,74.02
2018-02-22T17:30:42.359Z,74.22
2018-02-22T17:33:09.984Z,74.58
2018-02-22T17:35:38.401Z,74.59
2018-02-22T17:38:06.840Z,74.63
2018-02-22T17:40:40.208Z,74.87
2018-02-22T17:43:07.852Z,74.69
2018-02-22T17:45:35.471Z,74.85
2018-02-22T17:48:03.229Z,74.98
2018-02-22T17:50:31.400Z,74.92
2018-02-22T17:52:59.232Z,74.87
2018-02-22T17:55:26.855Z,75.41
2018-02-22T17:57:54.485Z,75.00
2018-02-22T18:00:22.103Z,75.15
2018-02-22T18:02:49.733Z,77.46
2018-02-22T18:05:17.341Z,75.77
2018-02-22T18:07:45.040Z,74.92
2018-02-22T18:10:12.705Z,75.40
2018-02-22T18:12:40.336Z,74.67
2018-02-22T18:15:07.949Z,74.56
2018-02-22T18:17:35.580Z,74.57
2018-02-22T18:20:03.193Z,74.83
2018-02-22T18:22:30.824Z,75.42
2018-02-22T18:24:58.433Z,75.17
2018-02-22T18:27:26.036Z,73.94
2018-02-22T18:29:53.668Z,73.81
2018-02-22T18:32:21.284Z,73.78
2018-02-22T18:34:48.920Z,73.81
2018-02-22T18:37:21.968Z,74.18
2018-02-22T18:39:49.599Z,74.09
2018-02-22T18:42:21.238Z,74.29
2018-02-22T18:44:54.493Z,73.95
2018-02-22T18:47:22.187Z,74.27
2018-02-22T18:49:49.825Z,74.35
2018-02-22T18:52:17.457Z,74.58
2018-02-22T18:54:45.106Z,74.25
2018-02-22T18:57:12.800Z,74.38
2018-02-22T18:59:40.504Z,74.16
2018-02-22T19:02:08.111Z,74.30
2018-02-22T19:04:35.744Z,74.54
2018-02-22T19:07:03.500Z,74.63
2018-02-22T19:09:31.239Z,74.92
2018-02-22T19:11:58.898Z,75.19
2018-02-22T19:14:26.513Z,75.32
2018-02-22T19:16:54.253Z,75.37
2018-02-22T19:19:21.955Z,75.49
2018-02-22T19:21:49.673Z,75.44
2018-02-22T19:24:17.284Z,75.47
2018-02-22T19:26:45.104Z,75.48
2018-02-22T19:29:12.788Z,75.32
2018-02-22T19:31:41.294Z,75.49
2018-02-22T19:34:09.017Z,75.78
2018-02-22T19:36:36.672Z,76.02
2018-02-22T19:39:04.281Z,75.69
2018-02-22T19:41:32.108Z,75.62
2018-02-22T19:43:59.864Z,75.45
2018-02-22T19:46:27.598Z,75.30
2018-02-22T19:48:55.400Z,74.98
2018-02-22T19:51:23.160Z,75.04
2018-02-22T19:53:50.875Z,74.76
2018-02-22T19:56:18.591Z,74.66
2018-02-22T19:58:46.361Z,74.55
2018-02-22T20:01:14.051Z,74.28
2018-02-22T20:03:41.803Z,74.36
2018-02-22T20:06:09.548Z,74.41
2018-02-22T20:08:37.256Z,74.36
2018-02-22T20:11:04.949Z,74.25
2018-02-22T20:13:32.656Z,74.32
2018-02-22T20:16:00.413Z,74.21
2018-02-22T20:18:28.100Z,73.79
2018-02-22T20:20:55.788Z,73.79
2018-02-22T20:23:23.596Z,73.27
2018-02-22T20:25:51.368Z,73.27
2018-02-22T20:28:19.080Z,73.01
2018-02-22T20:30:46.763Z,72.74
2018-02-22T20:33:14.466Z,72.63
2018-02-22T20:35:42.223Z,72.39
2018-02-22T20:38:10.208Z,72.00
2018-02-22T20:40:37.896Z,71.96
2018-02-22T20:43:05.600Z,71.77
2018-02-22T20:45:33.283Z,71.80
2018-02-22T20:48:01.007Z,71.67
2018-02-22T20:50:28.696Z,71.66
2018-02-22T20:52:58.216Z,71.67
2018-02-22T20:55:35.871Z,71.55
2018-02-22T20:58:03.584Z,71.80
2018-02-22T21:00:31.280Z,71.77
2018-02-22T21:02:59.084Z,71.89
2018-02-22T21:05:26.769Z,72.01
2018-02-22T21:07:54.480Z,72.29
2018-02-22T21:10:22.208Z,72.39
2018-02-22T21:12:49.968Z,72.40
2018-02-22T21:15:17.669Z,72.51
2018-02-22T21:17:45.392Z,72.71
2018-02-22T21:20:13.103Z,72.74
2018-02-22T21:22:40.788Z,72.77
2018-02-22T21:25:08.587Z,72.73
2018-02-22T21:27:36.275Z,72.83
2018-02-22T21:30:04.012Z,72.88
2018-02-22T21:32:31.776Z,72.70
2018-02-22T21:34:59.540Z,72.59
2018-02-22T21:37:27.303Z,72.57
2018-02-22T21:39:55.042Z,72.58
2018-02-22T21:42:22.836Z,72.70
2018-02-22T21:44:50.548Z,72.72
2018-02-22T21:47:18.241Z,72.81
2018-02-22T21:49:46.032Z,72.97
2018-02-22T21:52:13.801Z,72.99
2018-02-22T21:54:41.573Z,73.12
2018-02-22T21:57:09.268Z,73.17
2018-02-22T21:59:36.987Z,73.41
2018-02-22T22:02:04.700Z,73.36
2018-02-22T22:04:32.419Z,73.42
2018-02-22T22:07:00.183Z,73.47
2018-02-22T22:09:27.953Z,73.63
2018-02-22T22:11:55.712Z,73.86
2018-02-22T22:14:23.403Z,74.13
2018-02-22T22:16:51.109Z,74.28
2018-02-22T22:19:18.804Z,74.28
2018-02-22T22:21:46.513Z,74.27
2018-02-22T22:24:14.195Z,74.23
2018-02-22T22:26:41.905Z,74.11
2018-02-22T22:29:09.661Z,74.01
2018-02-22T22:31:37.423Z,74.04
2018-02-22T22:34:05.100Z,73.85
2018-02-22T22:36:32.861Z,73.82
2018-02-22T22:39:00.620Z,73.68
2018-02-22T22:41:28.310Z,73.48
2018-02-22T22:43:56.016Z,73.41
2018-02-22T22:46:23.702Z,73.28
2018-02-22T22:48:51.413Z,73.13
2018-02-22T22:51:19.106Z,72.98
2018-02-22T22:53:46.900Z,72.94
2018-02-22T22:56:14.606Z,72.86
2018-02-22T22:58:42.341Z,72.78
2018-02-22T23:01:10.101Z,72.70
2018-02-22T23:03:37.816Z,72.52
2018-02-22T23:06:05.524Z,72.44
2018-02-22T23:08:33.240Z,72.41
2018-02-22T23:11:00.951Z,72.25
2018-02-22T23:13:28.655Z,72.24
2018-02-22T23:15:56.380Z,72.04
2018-02-22T23:18:24.091Z,72.04
2018-02-22T23:20:51.809Z,71.91
2018-02-22T23:23:19.544Z,71.89
2018-02-22T23:25:47.220Z,71.99
2018-02-22T23:28:14.899Z,72.09
2018-02-22T23:30:42.621Z,72.23
2018-02-22T23:33:10.308Z,72.34
2018-02-22T23:35:38.020Z,72.42
2018-02-22T23:38:05.709Z,72.46
2018-02-22T23:40:49.260Z,72.48
2018-02-22T23:43:16.939Z,72.40
2018-02-22T23:45:44.675Z,72.53
2018-02-22T23:48:12.365Z,72.51
2018-02-22T23:50:40.145Z,72.44
2018-02-22T23:53:07.839Z,72.59
2018-02-22T23:55:35.543Z,72.71
2018-02-22T23:58:03.229Z,72.79
